^^
Saratoga-Weather Station Historical Data
Daily Summary for February 12, 2020 Units:  English    Metric   Both
Daily Weekly Monthly Yearly Custom
  High: Low: Average:
Temperature: 75.9 °F 54.1 °F 64.9 °F
Dew Point: 63.9 °F 52.2 °F 58.3 °F
Humidity: 95% 61% 80%
Wind Speed: 19.9mph 0mph 2.4mph
Wind Gust: 24mph - -
Wind- - SSW
Pressure: 29.8 in 29.6 in -
Precipitation: 0.71 in    
Historical Graphs
 
 
Tabular Data for February 12, 2020
Time Temperature Dew Point Pressure Wind Wind Speed Wind Gust Humidity Rainfall Rate (Hourly) solar
00:03 58.3 °F 53.8 °F 29.7 in Calm     85% 0 in 0 W/m2
00:08 57.9 °F 53.8 °F 29.7 in Calm     86% 0 in 0 W/m2
00:13 57.7 °F 53.6 °F 29.7 in Calm     86% 0 in 0 W/m2
00:18 57.6 °F 53.8 °F 29.7 in Calm   1 mph 87% 0 in 0 W/m2
00:23 57.4 °F 53.6 °F 29.7 in Calm     87% 0 in 0 W/m2
01:14 56.3 °F 53.4 °F 29.7 in Calm     90% 0 in 0 W/m2
01:29 56.1 °F 53.6 °F 29.7 in Calm     91% 0 in 0 W/m2
01:39 56.1 °F 53.6 °F 29.7 in Calm     91% 0 in 0 W/m2
02:04 55.9 °F 53.4 °F 29.7 in Calm     91% 0 in 0 W/m2
02:54 55.2 °F 52.9 °F 29.7 in Calm     92% 0 in 0 W/m2
03:34 55.6 °F 53.2 °F 29.7 in Calm     92% 0 in 0 W/m2
03:49 55.9 °F 53.6 °F 29.7 in ESE 0.9 mph 1 mph 92% 0 in 0 W/m2
04:25 55.2 °F 52.9 °F 29.7 in Calm     92% 0 in 0 W/m2
04:35 54.9 °F 52.5 °F 29.7 in Calm     92% 0 in 0 W/m2
04:54 54.1 °F 52.2 °F 29.7 in Calm     93% 0 in 0 W/m2
05:14 54.1 °F 52.5 °F 29.7 in Calm   1 mph 94% 0 in 0 W/m2
05:50 54.7 °F 53.1 °F 29.7 in Calm     94% 0 in 16 W/m2
05:55 54.7 °F 52.7 °F 29.7 in Calm     93% 0 in 18 W/m2
06:00 54.7 °F 52.7 °F 29.7 in Calm     93% 0 in 23 W/m2
06:05 54.7 °F 52.7 °F 29.7 in Calm     93% 0 in 30 W/m2
06:14 54.7 °F 53.1 °F 29.7 in Calm     94% 0 in 49 W/m2
06:20 54.9 °F 53.2 °F 29.7 in Calm   2 mph 94% 0 in 58 W/m2
06:25 55.2 °F 53.6 °F 29.7 in East 0.9 mph 3 mph 94% 0 in 67 W/m2
06:36 56.1 °F 54.1 °F 29.7 in Calm   3 mph 93% 0 in 83 W/m2
06:41 56.5 °F 54.5 °F 29.7 in Calm     93% 0 in 83 W/m2
06:47 56.8 °F 54.5 °F 29.7 in East 0.9 mph 2 mph 92% 0 in 86 W/m2
06:52 57 °F 54.7 °F 29.7 in ESE 2 mph 4 mph 92% 0 in 90 W/m2
06:57 57.4 °F 54.9 °F 29.7 in ESE 2 mph 2 mph 91% 0 in 88 W/m2
07:02 57.6 °F 55 °F 29.7 in Calm   1 mph 91% 0 in 90 W/m2
07:07 57.7 °F 54.9 °F 29.7 in East 2.9 mph 3 mph 90% 0 in 84 W/m2
07:12 57.9 °F 55 °F 29.7 in Calm   1 mph 90% 0 in 83 W/m2
07:17 57.9 °F 55 °F 29.7 in SSE 0.9 mph 4 mph 90% 0 in 77 W/m2
07:22 58.1 °F 54.9 °F 29.7 in Calm   1 mph 89% 0 in 70 W/m2
07:27 58.3 °F 55 °F 29.7 in NNE 0.9 mph 3 mph 89% 0 in 86 W/m2
07:32 58.3 °F 55 °F 29.7 in Calm   1 mph 89% 0 in 128 W/m2
07:37 58.5 °F 55.2 °F 29.7 in East 0.9 mph 3 mph 89% 0 in 185 W/m2
07:42 58.8 °F 55.6 °F 29.7 in ESE 0.9 mph 2 mph 89% 0 in 169 W/m2
07:47 59.2 °F 55.6 °F 29.7 in East 2 mph 5 mph 88% 0 in 151 W/m2
07:52 59.4 °F 55.8 °F 29.7 in ESE 0.9 mph 5 mph 88% 0 in 190 W/m2
07:57 59.7 °F 56.1 °F 29.7 in NE 0.9 mph 2 mph 88% 0 in 265 W/m2
08:02 60.1 °F 56.1 °F 29.7 in Calm   5 mph 87% 0 in 299 W/m2
08:07 60.4 °F 56.3 °F 29.7 in ENE 2.9 mph 4 mph 86% 0 in 279 W/m2
08:12 61 °F 56.5 °F 29.7 in ENE 0.9 mph 3 mph 85% 0 in 265 W/m2
08:17 61.2 °F 56.7 °F 29.7 in NE 0.9 mph 5 mph 85% 0 in 202 W/m2
08:22 61.2 °F 56.3 °F 29.7 in NNE 0.9 mph 1 mph 84% 0 in 258 W/m2
08:27 61.2 °F 56.3 °F 29.7 in NE 0.9 mph 5 mph 84% 0 in 257 W/m2
08:32 61.3 °F 56.5 °F 29.7 in North 0.9 mph 2 mph 84% 0 in 269 W/m2
08:37 61.5 °F 56.7 °F 29.7 in NE 4 mph 5 mph 84% 0 in 287 W/m2
08:42 61.9 °F 56.7 °F 29.7 in ENE 0.9 mph 1 mph 83% 0 in 287 W/m2
08:47 62.2 °F 57 °F 29.7 in North 2 mph 5 mph 83% 0 in 332 W/m2
08:52 62.8 °F 57.6 °F 29.7 in East 2 mph 2 mph 83% 0 in 411 W/m2
08:57 63.3 °F 57.7 °F 29.7 in Calm   1 mph 82% 0 in 459 W/m2
09:02 64 °F 58.1 °F 29.7 in ENE 0.9 mph 3 mph 81% 0 in 504 W/m2
09:07 64.8 °F 58.5 °F 29.7 in East 0.9 mph 4 mph 80% 0 in 448 W/m2
09:12 65.1 °F 58.1 °F 29.7 in NE 0.9 mph 2 mph 78% 0 in 355 W/m2
09:17 65.1 °F 57.4 °F 29.7 in North 0.9 mph 2 mph 76% 0 in 318 W/m2
09:22 65.1 °F 58.1 °F 29.7 in East 2.9 mph 3 mph 78% 0 in 308 W/m2
09:27 65.5 °F 58.1 °F 29.7 in ENE 2.9 mph 4 mph 77% 0 in 417 W/m2
09:32 65.8 °F 58.5 °F 29.7 in SE 4 mph 6 mph 77% 0 in 408 W/m2
09:37 66 °F 58.6 °F 29.7 in ESE 0.9 mph 5 mph 77% 0 in 348 W/m2
09:42 66.2 °F 58.5 °F 29.7 in ESE 0.9 mph 4 mph 76% 0 in 315 W/m2
09:47 66.4 °F 58.6 °F 29.7 in Calm   5 mph 76% 0 in 234 W/m2
09:52 66.4 °F 58.3 °F 29.7 in South 2 mph 7 mph 75% 0 in 160 W/m2
09:57 66 °F 58.3 °F 29.7 in ESE 0.9 mph 1 mph 76% 0 in 142 W/m2
10:02 66 °F 58.6 °F 29.7 in Calm   6 mph 77% 0 in 127 W/m2
10:07 65.8 °F 58.1 °F 29.7 in East 2 mph 3 mph 76% 0 in 127 W/m2
10:12 65.8 °F 58.5 °F 29.7 in ESE 2.9 mph 5 mph 77% 0 in 160 W/m2
10:17 65.8 °F 58.5 °F 29.7 in ESE 0.9 mph 4 mph 77% 0 in 181 W/m2
10:22 65.8 °F 58.5 °F 29.7 in Calm     77% 0 in 193 W/m2
10:27 66.2 °F 59.2 °F 29.7 in ESE 4 mph 6 mph 78% 0 in 200 W/m2
10:32 66.4 °F 58.6 °F 29.7 in Calm   4 mph 76% 0 in 211 W/m2
10:37 66.6 °F 58.8 °F 29.7 in Calm   6 mph 76% 0 in 260 W/m2
10:42 66.7 °F 59 °F 29.7 in SSE 0.9 mph 2 mph 76% 0 in 207 W/m2
10:47 66.9 °F 58.8 °F 29.7 in NE 2.9 mph 3 mph 75% 0 in 192 W/m2
10:52 67.1 °F 58.8 °F 29.7 in NNE 2.9 mph 3 mph 75% 0 in 171 W/m2
10:57 67.3 °F 59 °F 29.7 in North 2 mph 3 mph 75% 0 in 190 W/m2
11:02 67.3 °F 59 °F 29.7 in NE 0.9 mph 2 mph 75% 0 in 304 W/m2
11:07 67.6 °F 59 °F 29.7 in NE 2.9 mph 4 mph 74% 0 in 373 W/m2
11:12 68.2 °F 59.2 °F 29.7 in NW 0.9 mph 2 mph 73% 0 in 341 W/m2
11:17 68.5 °F 59.5 °F 29.7 in Calm   4 mph 73% 0 in 364 W/m2
11:22 68.9 °F 59.5 °F 29.7 in SE 0.9 mph 2 mph 72% 0 in 473 W/m2
11:27 69.3 °F 59.9 °F 29.7 in SW 0.9 mph 1 mph 72% 0 in 380 W/m2
11:32 69.4 °F 60.1 °F 29.7 in Calm   4 mph 72% 0 in 323 W/m2
11:37 69.4 °F 60.1 °F 29.7 in Calm   2 mph 72% 0 in 397 W/m2
11:42 70 °F 60.6 °F 29.7 in East 2 mph 4 mph 72% 0 in 436 W/m2
11:47 70 °F 59.7 °F 29.7 in West 0.9 mph 2 mph 70% 0 in 432 W/m2
11:52 69.8 °F 59.9 °F 29.7 in East 2 mph 4 mph 71% 0 in 420 W/m2
11:57 70 °F 60.1 °F 29.7 in ESE 0.9 mph 2 mph 71% 0 in 461 W/m2
12:02 70.2 °F 60.3 °F 29.7 in West 2 mph 3 mph 71% 0 in 457 W/m2
12:07 70.3 °F 60.1 °F 29.7 in NNE 0.9 mph 3 mph 70% 0 in 524 W/m2
12:12 70.5 °F 60.3 °F 29.7 in SE 0.9 mph 1 mph 70% 0 in 504 W/m2
12:17 70.9 °F 59.7 °F 29.7 in ENE 2 mph 3 mph 68% 0 in 436 W/m2
12:22 70.9 °F 59.4 °F 29.7 in SSE 2 mph 3 mph 67% 0 in 338 W/m2
12:27 71.1 °F 59.9 °F 29.7 in SE 0.9 mph 3 mph 68% 0 in 250 W/m2
12:32 70.9 °F 60.3 °F 29.7 in Calm   2 mph 69% 0 in 218 W/m2
12:37 70.7 °F 59.5 °F 29.7 in NE 2 mph 2 mph 68% 0 in 188 W/m2
12:42 70.5 °F 59.4 °F 29.7 in NNW 0.9 mph 4 mph 68% 0 in 181 W/m2
12:47 70.5 °F 59.4 °F 29.7 in East 2 mph 2 mph 68% 0 in 188 W/m2
12:53 70.3 °F 59.7 °F 29.7 in NNW 0.9 mph 3 mph 69% 0 in 236 W/m2
12:58 70.5 °F 61 °F 29.7 in Calm   3 mph 72% 0 in 250 W/m2
13:03 70.5 °F 60.3 °F 29.7 in ENE 0.9 mph 2 mph 70% 0 in 209 W/m2
13:08 70.9 °F 60.3 °F 29.7 in Calm   2 mph 69% 0 in 202 W/m2
13:13 71.1 °F 60.4 °F 29.7 in ENE 0.9 mph 4 mph 69% 0 in 223 W/m2
13:18 71.1 °F 60.4 °F 29.7 in East 0.9 mph 3 mph 69% 0 in 269 W/m2
13:23 71.2 °F 60.6 °F 29.7 in Calm   4 mph 69% 0 in 355 W/m2
13:28 71.8 °F 61 °F 29.7 in West 0.9 mph 2 mph 69% 0 in 425 W/m2
13:33 72.1 °F 60.6 °F 29.7 in WNW 0.9 mph 3 mph 67% 0 in 552 W/m2
13:38 72.7 °F 61.2 °F 29.7 in WNW 0.9 mph 3 mph 67% 0 in 624 W/m2
13:43 73 °F 60.6 °F 29.6 in NE 0.9 mph 3 mph 65% 0 in 299 W/m2
13:48 73.2 °F 61.2 °F 29.6 in ESE 0.9 mph 2 mph 66% 0 in 357 W/m2
13:53 73.2 °F 60.3 °F 29.6 in East 0.9 mph 2 mph 64% 0 in 369 W/m2
13:58 73.6 °F 60.6 °F 29.6 in WNW 2 mph 3 mph 64% 0 in 334 W/m2
14:03 73.4 °F 60.1 °F 29.6 in East 0.9 mph 2 mph 63% 0 in 348 W/m2
14:08 73.8 °F 61.3 °F 29.6 in Calm   2 mph 65% 0 in 499 W/m2
14:14 73.9 °F 60.6 °F 29.6 in ENE 2 mph 2 mph 63% 0 in 392 W/m2
14:19 73.9 °F 60.1 °F 29.6 in East 2 mph 3 mph 62% 0 in 441 W/m2
14:24 74.1 °F 61.2 °F 29.6 in West 2 mph 2 mph 64% 0 in 522 W/m2
14:29 74.5 °F 61 °F 29.6 in ESE 2 mph 2 mph 63% 0 in 394 W/m2
14:34 74.7 °F 60.8 °F 29.6 in NE 0.9 mph 2 mph 62% 0 in 316 W/m2
14:39 74.7 °F 60.3 °F 29.6 in WNW 0.9 mph 3 mph 61% 0 in 327 W/m2
14:44 74.5 °F 60.6 °F 29.6 in North 2 mph 5 mph 62% 0 in 392 W/m2
14:49 74.3 °F 60.8 °F 29.6 in Calm   2 mph 63% 0 in 366 W/m2
14:54 74.5 °F 61.5 °F 29.6 in West 2.9 mph 4 mph 64% 0 in 434 W/m2
14:59 74.7 °F 61.7 °F 29.6 in North 4 mph 6 mph 64% 0 in 603 W/m2
15:04 75 °F 61.2 °F 29.6 in North 0.9 mph 3 mph 62% 0 in 527 W/m2
15:09 75.4 °F 61.5 °F 29.6 in ESE 2.9 mph 4 mph 62% 0 in 308 W/m2
15:14 75.2 °F 61.3 °F 29.6 in NW 0.9 mph 3 mph 62% 0 in 330 W/m2
15:19 75.4 °F 61.9 °F 29.6 in WNW 2 mph 3 mph 63% 0 in 696 W/m2
15:24 75.4 °F 61.9 °F 29.6 in NW 0.9 mph 3 mph 63% 0 in 487 W/m2
15:29 75.6 °F 61.7 °F 29.6 in West 2 mph 5 mph 62% 0 in 594 W/m2
15:34 75.7 °F 62.2 °F 29.6 in East 2.9 mph 3 mph 63% 0 in 378 W/m2
15:39 75.9 °F 61.9 °F 29.6 in Calm   3 mph 62% 0 in 353 W/m2
15:44 75.9 °F 61.9 °F 29.6 in WNW 4.9 mph 5 mph 62% 0 in 334 W/m2
15:49 75.7 °F 61.9 °F 29.6 in NW 0.9 mph 3 mph 62% 0 in 392 W/m2
15:54 75.7 °F 61.9 °F 29.6 in NNW 0.9 mph 3 mph 62% 0 in 302 W/m2
15:59 75.9 °F 61.9 °F 29.6 in West 4 mph 5 mph 62% 0 in 220 W/m2
16:04 75.7 °F 62.8 °F 29.6 in West 2.9 mph 4 mph 64% 0 in 285 W/m2
16:09 75.7 °F 62.2 °F 29.6 in WSW 2.9 mph 4 mph 63% 0 in 248 W/m2
16:14 75.6 °F 62.6 °F 29.6 in WSW 4 mph 5 mph 64% 0 in 213 W/m2
16:19 75.4 °F 61.9 °F 29.6 in WSW 6.9 mph 7 mph 63% 0 in 216 W/m2
16:24 75.4 °F 61.5 °F 29.6 in WSW 2.9 mph 4 mph 62% 0 in 183 W/m2
16:29 75.4 °F 61.9 °F 29.6 in West 2.9 mph 5 mph 63% 0 in 153 W/m2
16:34 75 °F 62.4 °F 29.6 in WNW 2.9 mph 4 mph 65% 0 in 149 W/m2
16:39 74.8 °F 62.2 °F 29.6 in West 2.9 mph 5 mph 65% 0 in 192 W/m2
16:45 74.7 °F 62.6 °F 29.6 in WNW 4.9 mph 8 mph 66% 0 in 190 W/m2
16:50 74.3 °F 62.2 °F 29.6 in WNW 4.9 mph 9 mph 66% 0 in 185 W/m2
16:55 73.8 °F 62.6 °F 29.6 in WNW 6 mph 12 mph 68% 0 in 193 W/m2
17:00 73.2 °F 63.3 °F 29.6 in West 6 mph 10 mph 71% 0 in 271 W/m2
17:05 72.3 °F 63.1 °F 29.6 in West 8.1 mph 14 mph 73% 0 in 376 W/m2
17:10 72 °F 63.7 °F 29.6 in NW 4 mph 8 mph 75% 0 in 338 W/m2
17:15 71.8 °F 63.5 °F 29.6 in WSW 10.1 mph 11 mph 75% 0 in 272 W/m2
17:20 71.4 °F 62.8 °F 29.6 in WNW 8.1 mph 12 mph 74% 0 in 265 W/m2
17:25 71.4 °F 63.1 °F 29.6 in West 8.1 mph 15 mph 75% 0 in 274 W/m2
17:30 71.4 °F 63.1 °F 29.6 in West 2.9 mph 11 mph 75% 0 in 262 W/m2
17:35 71.8 °F 63.9 °F 29.6 in WNW 2.9 mph 13 mph 76% 0 in 399 W/m2
17:40 72 °F 63.7 °F 29.6 in West 8.9 mph 10 mph 75% 0 in 288 W/m2
17:45 72.1 °F 63 °F 29.6 in West 8.1 mph 13 mph 73% 0 in 492 W/m2
17:50 72.5 °F 63.3 °F 29.6 in WNW 11 mph 13 mph 73% 0 in 622 W/m2
17:55 72.7 °F 63.1 °F 29.6 in WNW 8.1 mph 12 mph 72% 0 in 745 W/m2
18:00 72.7 °F 62.8 °F 29.6 in West 6 mph 12 mph 71% 0 in 306 W/m2
18:05 72.1 °F 62.6 °F 29.6 in SW 12.1 mph 12 mph 72% 0 in 237 W/m2
18:10 71.4 °F 62.2 °F 29.6 in West 10.1 mph 15 mph 73% 0 in 204 W/m2
18:15 70.7 °F 61.2 °F 29.6 in West 6 mph 15 mph 72% 0 in 186 W/m2
18:20 70.2 °F 60.3 °F 29.6 in WSW 8.9 mph 11 mph 71% 0 in 137 W/m2
18:25 69.4 °F 60.1 °F 29.6 in West 6.9 mph 15 mph 72% 0 in 116 W/m2
18:30 69.1 °F 60.4 °F 29.6 in SW 8.9 mph 10 mph 74% 0 in 53 W/m2
18:35 68.5 °F 59.9 °F 29.6 in WSW 4.9 mph 13 mph 74% 0 in 23 W/m2
18:41 68.2 °F 59.5 °F 29.6 in WNW 6.9 mph 15 mph 74% 0 in 11 W/m2
18:46 67.6 °F 58.3 °F 29.7 in West 6.9 mph 15 mph 72% 0 in 5 W/m2
18:51 67.3 °F 58.3 °F 29.7 in WNW 13 mph 13 mph 73% 0 in 0 W/m2
18:56 65.5 °F 58.5 °F 29.7 in WSW 19.9 mph 20 mph 78% 0.13 in 0 W/m2
19:01 62.8 °F 58.3 °F 29.7 in WNW 6.9 mph 14 mph 85% 0.26 in 5 W/m2
19:06 61.3 °F 57.7 °F 29.6 in WNW 8.1 mph 24 mph 88% 0.39 in 23 W/m2
19:11 60.6 °F 57.7 °F 29.6 in WSW 11 mph 12 mph 90% 0.39 in 39 W/m2
19:16 60.1 °F 57.2 °F 29.7 in WNW 6 mph 14 mph 90% 0.4 in 42 W/m2
19:21 59.9 °F 57.2 °F 29.7 in West 8.1 mph 12 mph 91% 0.4 in 44 W/m2
19:26 59.7 °F 57.4 °F 29.7 in West 4 mph 13 mph 92% 0.4 in 53 W/m2
19:31 59.9 °F 57.6 °F 29.7 in NW 4 mph 9 mph 92% 0.4 in 98 W/m2
19:36 60.3 °F 57.9 °F 29.7 in WSW 6.9 mph 11 mph 92% 0.4 in 81 W/m2
19:41 60.3 °F 57.9 °F 29.7 in NNW 4 mph 10 mph 92% 0.4 in 76 W/m2
19:46 60.1 °F 57.7 °F 29.7 in West 4 mph 6 mph 92% 0.4 in 70 W/m2
19:51 60.1 °F 57.7 °F 29.7 in WNW 4.9 mph 9 mph 92% 0.4 in 63 W/m2
19:56 60.1 °F 57.7 °F 29.7 in West 6 mph 9 mph 92% 0.24 in 53 W/m2
20:01 60.1 °F 57.7 °F 29.7 in WSW 6.9 mph 7 mph 92% 0.13 in 30 W/m2
20:06 60.1 °F 57.4 °F 29.7 in WNW 2.9 mph 6 mph 91% 0.01 in 42 W/m2
20:11 60.1 °F 57.4 °F 29.7 in West 4 mph 8 mph 91% 0.01 in 42 W/m2
20:16 60.1 °F 57.4 °F 29.7 in SW 0.9 mph 2 mph 91% 0 in 25 W/m2
20:21 60.1 °F 57.4 °F 29.7 in Calm   6 mph 91% 0 in 14 W/m2
20:26 59.9 °F 57.2 °F 29.7 in WSW 4.9 mph 6 mph 91% 0 in 12 W/m2
20:31 59.9 °F 57.6 °F 29.7 in WNW 4.9 mph 8 mph 92% 0 in 18 W/m2
20:36 59.9 °F 57.6 °F 29.7 in West 8.1 mph 8 mph 92% 0 in 19 W/m2
20:41 59.7 °F 57.4 °F 29.7 in NW 0.9 mph 5 mph 92% 0 in 14 W/m2
20:46 59.7 °F 57.4 °F 29.7 in WSW 2 mph 6 mph 92% 0 in 12 W/m2
20:52 59.5 °F 57.2 °F 29.7 in WSW 0.9 mph 1 mph 92% 0 in 9 W/m2
20:57 59.4 °F 57 °F 29.7 in WSW 2.9 mph 4 mph 92% 0 in 5 W/m2
21:02 59.4 °F 57.4 °F 29.7 in West 2.9 mph 4 mph 93% 0 in 0 W/m2
21:07 59.2 °F 57.2 °F 29.7 in West 2 mph 4 mph 93% 0 in 0 W/m2
21:12 59.2 °F 56.8 °F 29.7 in West 4 mph 9 mph 92% 0 in 0 W/m2
21:17 59.4 °F 57 °F 29.7 in WNW 2 mph 3 mph 92% 0 in 0 W/m2
21:22 59.2 °F 56.8 °F 29.7 in WSW 0.9 mph 7 mph 92% 0 in 0 W/m2
21:27 59.2 °F 56.8 °F 29.7 in NNW 0.9 mph 2 mph 92% 0 in 0 W/m2
21:32 59.4 °F 57 °F 29.7 in Calm   1 mph 92% 0 in 0 W/m2
21:37 59.4 °F 57 °F 29.7 in WNW 2.9 mph 4 mph 92% 0 in 0 W/m2
21:42 59.2 °F 57.2 °F 29.7 in Calm   2 mph 93% 0 in 0 W/m2
21:47 59.2 °F 57.2 °F 29.7 in Calm   4 mph 93% 0 in 0 W/m2
21:52 58.8 °F 56.8 °F 29.7 in Calm     93% 0 in 0 W/m2
21:57 58.8 °F 56.8 °F 29.7 in Calm     93% 0 in 0 W/m2
22:02 58.6 °F 56.8 °F 29.7 in SSW 0.9 mph 2 mph 94% 0 in 0 W/m2
22:07 58.6 °F 56.8 °F 29.7 in Calm     94% 0 in 0 W/m2
22:12 58.6 °F 56.8 °F 29.7 in SW 2 mph 2 mph 94% 0 in 0 W/m2
22:17 58.5 °F 56.7 °F 29.7 in West 2 mph 4 mph 94% 0 in 0 W/m2
22:22 58.3 °F 56.5 °F 29.7 in Calm     94% 0 in 0 W/m2
22:27 58.3 °F 56.5 °F 29.7 in Calm     94% 0 in 0 W/m2
22:32 58.3 °F 56.8 °F 29.7 in Calm     95% 0 in 0 W/m2
22:37 58.3 °F 56.8 °F 29.7 in WSW 0.9 mph 2 mph 95% 0 in 0 W/m2
22:42 58.5 °F 57 °F 29.7 in ESE 0.9 mph 2 mph 95% 0.01 in 0 W/m2
22:47 58.5 °F 57 °F 29.8 in Calm     95% 0.01 in 0 W/m2
22:52 58.5 °F 57 °F 29.8 in North 2 mph 3 mph 95% 0.02 in 0 W/m2
22:57 58.5 °F 57 °F 29.8 in North 2.9 mph 3 mph 95% 0.06 in 0 W/m2
23:02 58.5 °F 57 °F 29.8 in NNE 0.9 mph 4 mph 95% 0.09 in 0 W/m2
23:07 58.6 °F 56.8 °F 29.8 in West 0.9 mph 2 mph 94% 0.13 in 0 W/m2
23:12 58.6 °F 56.8 °F 29.8 in West 2 mph 3 mph 94% 0.17 in 0 W/m2
23:17 58.5 °F 56.7 °F 29.8 in Calm   2 mph 94% 0.19 in 0 W/m2
23:22 58.5 °F 57 °F 29.8 in SW 2 mph 3 mph 95% 0.2 in 0 W/m2
23:27 58.3 °F 56.8 °F 29.8 in West 2 mph 3 mph 95% 0.22 in 0 W/m2
23:32 58.3 °F 56.8 °F 29.8 in West 2.9 mph 3 mph 95% 0.23 in 0 W/m2
23:37 57.9 °F 56.5 °F 29.8 in WNW 0.9 mph 2 mph 95% 0.24 in 0 W/m2
23:42 57.9 °F 56.5 °F 29.8 in ESE 2 mph 3 mph 95% 0.24 in 0 W/m2
23:47 58.1 °F 56.7 °F 29.8 in ESE 2 mph 3 mph 95% 0.27 in 0 W/m2
23:52 58.1 °F 56.7 °F 29.8 in NNE 0.9 mph 2 mph 95% 0.28 in 0 W/m2
23:57 58.1 °F 56.7 °F 29.8 in West 2.9 mph 3 mph 95% 0.24 in 0 W/m2
Juneau County Weather
Compliments of Weather Underground - 2 mb